createdAt,value
2023-01-06T00:01:33.993Z,7.60
2023-01-06T00:04:40.214Z,7.70
2023-01-06T00:07:45.729Z,7.66
2023-01-06T00:10:50.806Z,7.74
2023-01-06T00:13:56.579Z,7.70
2023-01-06T00:17:02.348Z,7.65
2023-01-06T00:20:08.840Z,7.63
2023-01-06T00:23:14.977Z,7.65
2023-01-06T00:26:22.245Z,7.55
2023-01-06T00:29:29.325Z,7.66
2023-01-06T00:32:35.187Z,7.67
2023-01-06T00:35:40.818Z,7.66
2023-01-06T00:38:46.988Z,7.67
2023-01-06T00:42:11.858Z,7.89
2023-01-06T00:45:18.155Z,7.77
2023-01-06T00:48:25.249Z,7.82
2023-01-06T00:51:31.062Z,7.89
2023-01-06T00:54:36.949Z,7.93
2023-01-06T00:57:42.175Z,8.00
2023-01-06T01:00:47.327Z,8.12
2023-01-06T01:03:54.586Z,8.15
2023-01-06T01:07:01.499Z,8.10
2023-01-06T01:10:06.512Z,8.12
2023-01-06T01:13:12.064Z,7.91
2023-01-06T01:16:24.745Z,7.99
2023-01-06T01:19:30.057Z,8.07
2023-01-06T01:22:35.947Z,8.07
2023-01-06T01:25:41.913Z,7.99
2023-01-06T01:28:48.388Z,8.10
2023-01-06T01:31:53.877Z,8.10
2023-01-06T01:35:00.436Z,7.89
2023-01-06T01:38:05.863Z,8.04
2023-01-06T01:41:11.465Z,8.01
2023-01-06T01:44:20.236Z,7.96
2023-01-06T01:47:25.965Z,7.85
2023-01-06T01:50:43.898Z,7.85
2023-01-06T01:53:57.880Z,7.94
2023-01-06T01:57:07.243Z,8.03
2023-01-06T02:00:12.875Z,8.12
2023-01-06T02:03:19.310Z,7.91
2023-01-06T02:06:28.422Z,7.80
2023-01-06T02:09:54.821Z,7.70
2023-01-06T02:13:05.846Z,7.68
2023-01-06T02:16:23.978Z,7.63
2023-01-06T02:19:54.422Z,7.84
2023-01-06T02:23:29.116Z,8.08
2023-01-06T02:26:54.099Z,7.98
2023-01-06T02:30:18.223Z,8.10
2023-01-06T02:33:41.888Z,8.17
2023-01-06T02:37:10.446Z,8.25
2023-01-06T02:40:37.160Z,8.19
2023-01-06T02:43:59.692Z,8.11
2023-01-06T02:47:35.583Z,8.15
2023-01-06T02:51:01.359Z,8.20
2023-01-06T02:54:33.557Z,8.15
2023-01-06T02:57:52.548Z,8.13
2023-01-06T03:01:06.352Z,8.16
2023-01-06T03:04:13.054Z,8.09
2023-01-06T03:07:19.249Z,8.01
2023-01-06T03:10:28.232Z,7.98
2023-01-06T03:14:05.473Z,8.13
2023-01-06T03:17:12.016Z,8.18
2023-01-06T03:20:19.229Z,8.08
2023-01-06T03:23:24.999Z,8.04
2023-01-06T03:26:31.020Z,8.01
2023-01-06T03:29:37.080Z,8.11
2023-01-06T03:32:49.231Z,8.18
2023-01-06T03:36:31.307Z,8.24
2023-01-06T03:39:41.545Z,8.25
2023-01-06T03:43:23.209Z,8.20
2023-01-06T03:46:46.521Z,8.19
2023-01-06T03:49:57.740Z,8.20
2023-01-06T03:53:08.850Z,8.09
2023-01-06T03:56:27.873Z,8.11
2023-01-06T03:59:40.559Z,8.13
2023-01-06T04:02:45.773Z,8.23
2023-01-06T04:05:54.358Z,8.23
2023-01-06T04:09:00.163Z,8.11
2023-01-06T04:12:25.504Z,7.98
2023-01-06T04:15:36.123Z,7.88
2023-01-06T04:18:40.069Z,7.76
2023-01-06T04:21:47.421Z,7.75
2023-01-06T04:24:52.332Z,7.73
2023-01-06T04:27:59.127Z,7.89
2023-01-06T04:31:03.999Z,7.94
2023-01-06T04:34:09.767Z,8.16
2023-01-06T04:37:16.445Z,8.29
2023-01-06T04:40:23.188Z,8.35
2023-01-06T04:43:28.567Z,7.93
2023-01-06T04:46:34.997Z,8.19
2023-01-06T04:49:40.859Z,8.26
2023-01-06T04:52:46.848Z,8.26
2023-01-06T04:55:54.543Z,8.31
2023-01-06T04:59:00.880Z,8.18
2023-01-06T05:02:06.319Z,8.23
2023-01-06T05:05:12.430Z,8.47
2023-01-06T05:08:18.127Z,8.34
2023-01-06T05:11:29.840Z,8.49
2023-01-06T05:14:36.003Z,8.16
2023-01-06T05:17:41.628Z,8.07
2023-01-06T05:20:46.834Z,8.08
2023-01-06T05:23:53.329Z,8.11
2023-01-06T05:26:58.829Z,8.02
2023-01-06T05:30:04.602Z,8.08
2023-01-06T05:33:09.779Z,8.12
2023-01-06T05:36:19.281Z,8.24
2023-01-06T05:39:24.911Z,8.38
2023-01-06T05:42:32.265Z,8.26
2023-01-06T05:45:38.892Z,8.22
2023-01-06T05:48:45.575Z,8.15
2023-01-06T05:51:51.972Z,8.29
2023-01-06T05:54:57.230Z,8.39
2023-01-06T05:58:03.084Z,8.30
2023-01-06T06:01:08.642Z,8.46
2023-01-06T06:04:14.228Z,8.16
2023-01-06T06:07:19.464Z,8.28
2023-01-06T06:10:26.293Z,8.17
2023-01-06T06:13:32.361Z,7.84
2023-01-06T06:16:39.590Z,8.04
2023-01-06T06:19:45.037Z,8.10
2023-01-06T06:22:51.108Z,7.90
2023-01-06T06:25:57.145Z,7.92
2023-01-06T06:29:03.382Z,8.23
2023-01-06T06:32:09.923Z,8.39
2023-01-06T06:35:16.105Z,8.51
2023-01-06T06:38:20.907Z,8.54
2023-01-06T06:41:26.941Z,8.32
2023-01-06T06:44:31.658Z,8.41
2023-01-06T06:47:37.102Z,8.26
2023-01-06T06:50:43.166Z,8.45
2023-01-06T06:53:50.125Z,8.25
2023-01-06T06:56:55.980Z,8.31
2023-01-06T07:00:01.760Z,8.36
2023-01-06T07:03:07.805Z,8.49
2023-01-06T07:06:13.873Z,8.60
2023-01-06T07:09:19.212Z,8.59
2023-01-06T07:12:24.390Z,8.42
2023-01-06T07:15:30.083Z,8.21
2023-01-06T07:18:36.086Z,8.17
2023-01-06T07:21:41.283Z,8.16
2023-01-06T07:24:46.626Z,8.14
2023-01-06T07:27:51.944Z,8.37
2023-01-06T07:30:58.721Z,8.43
2023-01-06T07:34:03.914Z,8.44
2023-01-06T07:37:09.170Z,8.28
2023-01-06T07:40:14.557Z,8.30
2023-01-06T07:43:25.727Z,8.53
2023-01-06T07:46:30.952Z,8.38
2023-01-06T07:49:37.334Z,8.51
2023-01-06T07:52:43.545Z,8.39
2023-01-06T07:55:49.200Z,8.31
2023-01-06T07:58:54.433Z,8.56
2023-01-06T08:02:00.378Z,8.52
2023-01-06T08:05:06.219Z,8.30
2023-01-06T08:08:11.839Z,8.52
2023-01-06T08:11:17.585Z,8.42
2023-01-06T08:14:23.001Z,8.64
2023-01-06T08:17:29.655Z,8.60
2023-01-06T08:20:35.842Z,8.68
2023-01-06T08:23:41.958Z,8.69
2023-01-06T08:26:46.894Z,8.70
2023-01-06T08:29:53.420Z,8.86
2023-01-06T08:33:00.245Z,8.86
2023-01-06T08:36:14.883Z,8.85
2023-01-06T08:39:20.783Z,9.05
2023-01-06T08:42:27.853Z,8.84
2023-01-06T08:45:32.637Z,8.76
2023-01-06T08:48:38.603Z,8.69
2023-01-06T08:51:43.957Z,8.88
2023-01-06T08:54:51.506Z,8.79
2023-01-06T08:57:57.714Z,8.71
2023-01-06T09:01:02.470Z,8.68
2023-01-06T09:04:07.671Z,8.90
2023-01-06T09:07:14.366Z,8.89
2023-01-06T09:10:20.759Z,8.76
2023-01-06T09:13:26.333Z,8.58
2023-01-06T09:16:31.934Z,8.64
2023-01-06T09:19:37.794Z,8.65
2023-01-06T09:22:43.357Z,8.52
2023-01-06T09:25:49.138Z,8.74
2023-01-06T09:28:54.641Z,8.66
2023-01-06T09:32:01.408Z,8.86
2023-01-06T09:35:07.228Z,8.44
2023-01-06T09:38:13.139Z,8.52
2023-01-06T09:41:56.061Z,8.49
2023-01-06T09:45:23.507Z,8.62
2023-01-06T09:48:33.453Z,8.54
2023-01-06T09:51:39.538Z,8.28
2023-01-06T09:54:48.174Z,8.12
2023-01-06T09:58:00.258Z,7.80
2023-01-06T10:01:10.128Z,7.62
2023-01-06T10:04:15.719Z,7.50
2023-01-06T10:07:43.242Z,7.22
2023-01-06T10:11:05.344Z,7.24
2023-01-06T10:14:56.665Z,7.34
2023-01-06T10:18:09.057Z,7.19
2023-01-06T10:21:22.425Z,6.97
2023-01-06T10:25:07.355Z,6.98
2023-01-06T10:28:19.755Z,6.66
2023-01-06T10:31:29.208Z,6.64
2023-01-06T10:34:42.368Z,6.43
2023-01-06T10:37:54.727Z,6.06
2023-01-06T10:41:01.486Z,6.07
2023-01-06T10:44:07.068Z,5.84
2023-01-06T10:47:12.447Z,6.16
2023-01-06T11:26:17.023Z,5.19
2023-01-06T11:29:32.375Z,5.19
2023-01-06T11:32:41.390Z,5.12
2023-01-06T11:35:48.377Z,5.06
2023-01-06T11:39:03.202Z,4.91
2023-01-06T11:42:21.627Z,4.85
2023-01-06T11:46:01.529Z,4.94
2023-01-06T11:57:56.086Z,4.93
2023-01-06T12:01:06.410Z,4.84
2023-01-06T12:20:11.436Z,4.48
2023-01-06T12:23:29.241Z,4.50
2023-01-06T12:29:01.796Z,4.16
2023-01-06T12:34:54.765Z,3.67
2023-01-06T12:40:59.860Z,3.61
2023-01-06T12:44:27.056Z,3.57
2023-01-06T12:47:43.666Z,3.47
2023-01-06T12:53:25.654Z,3.36
2023-01-06T12:56:35.508Z,3.47
2023-01-06T13:02:54.567Z,3.18
2023-01-06T13:06:08.147Z,3.08
2023-01-06T13:09:23.129Z,3.10
2023-01-06T13:15:33.749Z,2.84
2023-01-06T13:18:46.363Z,2.91
2023-01-06T13:21:51.874Z,2.89
2023-01-06T13:25:12.992Z,2.86
2023-01-06T13:28:40.132Z,2.81
2023-01-06T13:32:28.290Z,2.84
2023-01-06T13:36:00.541Z,2.83
2023-01-06T13:39:10.328Z,2.84
2023-01-06T13:44:43.984Z,2.75
2023-01-06T13:50:15.854Z,2.54
2023-01-06T13:55:51.134Z,2.44
2023-01-06T14:03:57.084Z,2.32
2023-01-06T14:09:32.704Z,1.97
2023-01-06T14:12:38.790Z,2.03
2023-01-06T14:20:51.341Z,1.56
2023-01-06T14:24:13.947Z,1.36
2023-01-06T14:27:20.489Z,1.45
2023-01-06T14:30:09.996Z,1.51
2023-01-06T14:33:19.419Z,1.58
2023-01-06T14:39:06.740Z,1.63
2023-01-06T14:42:36.297Z,1.64
2023-01-06T14:51:19.277Z,1.17
2023-01-06T14:54:38.210Z,1.23
2023-01-06T15:05:53.171Z,1.41
2023-01-06T15:08:42.619Z,1.27
2023-01-06T15:11:51.904Z,1.25
2023-01-06T15:17:24.234Z,1.33
2023-01-06T15:25:36.487Z,1.14
2023-01-06T15:28:42.252Z,1.27
2023-01-06T15:31:52.295Z,1.02
2023-01-06T15:34:58.458Z,0.96
2023-01-06T15:40:35.873Z,0.91
2023-01-06T15:46:25.308Z,0.17
2023-01-06T15:49:44.455Z,0.42
2023-01-06T15:52:55.811Z,0.93
2023-01-06T15:56:06.090Z,0.56
2023-01-06T15:59:11.632Z,0.95
2023-01-06T16:02:16.689Z,0.98
2023-01-06T16:07:54.687Z,1.26
2023-01-06T16:11:00.425Z,0.98
2023-01-06T16:14:13.502Z,0.94
2023-01-06T16:20:06.612Z,-0.26
2023-01-06T16:23:10.329Z,-0.15
2023-01-06T16:29:06.279Z,-0.19
2023-01-06T16:37:13.071Z,-0.17
2023-01-06T16:40:18.553Z,-0.21
2023-01-06T16:45:55.674Z,-0.11
2023-01-06T16:49:01.316Z,-0.57
2023-01-06T16:51:36.447Z,-0.28
2023-01-06T16:56:51.025Z,-0.19
2023-01-06T16:59:56.783Z,-0.23
2023-01-06T17:03:02.658Z,-0.10
2023-01-06T17:06:08.331Z,-0.48
2023-01-06T17:11:45.070Z,-0.48
2023-01-06T17:14:51.588Z,-0.71
2023-01-06T17:17:58.542Z,-0.80
2023-01-06T17:21:04.823Z,-0.60
2023-01-06T17:24:33.491Z,-0.78
2023-01-06T17:30:15.960Z,-0.89
2023-01-06T17:33:25.252Z,-0.79
2023-01-06T17:38:57.369Z,-0.80
2023-01-06T17:42:03.611Z,-0.93
2023-01-06T17:47:40.298Z,-0.78
2023-01-06T17:56:36.309Z,-1.01
2023-01-06T17:59:41.889Z,-1.10
2023-01-06T18:08:26.717Z,-1.43
2023-01-06T18:16:45.627Z,-1.31
2023-01-06T18:19:51.505Z,-1.52
2023-01-06T18:22:57.076Z,-1.37
2023-01-06T18:26:03.406Z,-1.53
2023-01-06T18:31:36.667Z,-1.43
2023-01-06T18:37:09.692Z,-1.78
2023-01-06T18:42:52.767Z,-2.11
2023-01-06T18:45:59.576Z,-2.14
2023-01-06T18:49:05.095Z,-1.99
2023-01-06T18:52:10.446Z,-2.13
2023-01-06T18:55:16.386Z,-2.07
2023-01-06T18:58:34.260Z,-2.17
2023-01-06T19:01:46.085Z,-2.42
2023-01-06T19:07:35.414Z,-2.70
2023-01-06T19:10:42.071Z,-3.08
2023-01-06T19:13:29.105Z,-3.10
2023-01-06T19:16:52.014Z,-3.07
2023-01-06T19:22:40.506Z,-2.81
2023-01-06T19:25:55.001Z,-2.78
2023-01-06T19:28:47.740Z,-3.18
2023-01-06T19:34:24.435Z,-2.73
2023-01-06T19:37:33.261Z,-2.81
2023-01-06T19:40:43.321Z,-2.83
2023-01-06T19:43:50.457Z,-3.49
2023-01-06T19:47:01.951Z,-3.59
2023-01-06T19:52:47.312Z,-3.86
2023-01-06T19:55:52.570Z,-3.70
2023-01-06T19:58:58.984Z,-3.27
2023-01-06T20:02:13.499Z,-3.28
2023-01-06T20:07:55.568Z,-3.33
2023-01-06T20:11:01.820Z,-3.62
2023-01-06T20:14:07.660Z,-4.03
2023-01-06T20:17:13.686Z,-3.68
2023-01-06T20:20:20.533Z,-3.66
2023-01-06T20:23:27.670Z,-3.78
2023-01-06T20:26:33.233Z,-4.33
2023-01-06T20:32:05.703Z,-4.29
2023-01-06T20:37:39.588Z,-4.40
2023-01-06T20:43:13.819Z,-4.46
2023-01-06T20:46:21.003Z,-4.38
2023-01-06T20:51:52.548Z,-4.37
2023-01-06T20:57:24.585Z,-4.41
2023-01-06T21:00:30.199Z,-4.40
2023-01-06T21:06:01.461Z,-4.12
2023-01-06T21:09:07.540Z,-3.97
2023-01-06T21:12:12.733Z,-3.98
2023-01-06T21:15:21.869Z,-3.89
2023-01-06T21:18:27.950Z,-3.77
2023-01-06T21:21:33.356Z,-4.14
2023-01-06T21:24:39.238Z,-4.45
2023-01-06T21:27:45.572Z,-4.40
2023-01-06T21:30:51.263Z,-4.41
2023-01-06T21:36:25.547Z,-4.59
2023-01-06T21:42:15.637Z,-4.72
2023-01-06T21:45:23.961Z,-4.71
2023-01-06T21:48:31.470Z,-4.76
2023-01-06T21:51:37.359Z,-4.78
2023-01-06T21:57:10.236Z,-5.08
2023-01-06T22:00:16.700Z,-5.16
2023-01-06T22:05:49.159Z,-5.17
2023-01-06T22:11:20.259Z,-5.35
2023-01-06T22:16:54.728Z,-5.51
2023-01-06T22:22:28.499Z,-5.52
2023-01-06T22:28:00.264Z,-5.55
2023-01-06T22:33:35.765Z,-5.60
2023-01-06T22:39:07.511Z,-5.24
2023-01-06T22:44:41.065Z,-4.79
2023-01-06T22:47:47.702Z,-4.75
2023-01-06T22:53:19.743Z,-4.87
2023-01-06T22:58:54.931Z,-5.71
2023-01-06T23:04:25.957Z,-5.55
2023-01-06T23:07:30.984Z,-5.62
2023-01-06T23:13:03.301Z,-5.94
2023-01-06T23:18:36.798Z,-6.00
2023-01-06T23:21:46.005Z,-6.02
2023-01-06T23:24:52.282Z,-6.03
2023-01-06T23:27:59.018Z,-6.00
2023-01-06T23:31:05.212Z,-6.01
2023-01-06T23:34:13.243Z,-6.00
2023-01-06T23:37:19.098Z,-5.97
2023-01-06T23:40:25.975Z,-5.53
2023-01-06T23:45:57.058Z,-5.49
2023-01-06T23:49:02.552Z,-5.59
2023-01-06T23:54:34.000Z,-6.10
